sensor_id;sensor_type;location;lat;lon;timestamp;pressure;altitude;pressure_sealevel;temperature;humidity
84817;BME280;75051;53.104;18.058;2024-03-17T00:01:11;100989.33;;;4.56;62.95
84817;BME280;75051;53.104;18.058;2024-03-17T00:03:58;100986.17;;;4.53;63.11
84817;BME280;75051;53.104;18.058;2024-03-17T00:06:25;100990.83;;;4.51;62.65
84817;BME280;75051;53.104;18.058;2024-03-17T00:08:52;100991.08;;;4.48;62.30
84817;BME280;75051;53.104;18.058;2024-03-17T00:11:18;100989.24;;;4.47;61.98
84817;BME280;75051;53.104;18.058;2024-03-17T00:13:45;100988.11;;;4.49;61.79
84817;BME280;75051;53.104;18.058;2024-03-17T00:16:11;100988.05;;;4.50;61.52
84817;BME280;75051;53.104;18.058;2024-03-17T00:18:39;100981.33;;;4.49;61.63
84817;BME280;75051;53.104;18.058;2024-03-17T00:21:07;100981.39;;;4.49;61.63
84817;BME280;75051;53.104;18.058;2024-03-17T00:23:35;100984.57;;;4.47;62.16
84817;BME280;75051;53.104;18.058;2024-03-17T00:26:01;100979.83;;;4.43;62.16
84817;BME280;75051;53.104;18.058;2024-03-17T00:28:28;100978.83;;;4.39;61.97
84817;BME280;75051;53.104;18.058;2024-03-17T00:30:54;100975.77;;;4.35;62.36
84817;BME280;75051;53.104;18.058;2024-03-17T00:33:21;100976.05;;;4.32;61.98
84817;BME280;75051;53.104;18.058;2024-03-17T00:35:48;100969.77;;;4.30;62.12
84817;BME280;75051;53.104;18.058;2024-03-17T00:38:15;100966.44;;;4.33;61.82
84817;BME280;75051;53.104;18.058;2024-03-17T00:40:42;100969.10;;;4.38;61.68
84817;BME280;75051;53.104;18.058;2024-03-17T00:43:08;100960.98;;;4.40;61.36
84817;BME280;75051;53.104;18.058;2024-03-17T00:45:35;100965.14;;;4.42;61.66
84817;BME280;75051;53.104;18.058;2024-03-17T00:48:01;100962.89;;;4.44;61.14
84817;BME280;75051;53.104;18.058;2024-03-17T00:50:28;100965.41;;;4.46;61.55
84817;BME280;75051;53.104;18.058;2024-03-17T00:52:54;100965.65;;;4.50;60.94
84817;BME280;75051;53.104;18.058;2024-03-17T00:55:21;100963.51;;;4.52;61.57
84817;BME280;75051;53.104;18.058;2024-03-17T00:57:48;100968.32;;;4.57;60.59
84817;BME280;75051;53.104;18.058;2024-03-17T01:00:15;100968.56;;;4.58;60.62
84817;BME280;75051;53.104;18.058;2024-03-17T01:02:41;100963.73;;;4.60;60.50
84817;BME280;75051;53.104;18.058;2024-03-17T01:05:08;100960.58;;;4.64;60.64
84817;BME280;75051;53.104;18.058;2024-03-17T01:07:35;100954.74;;;4.67;60.60
84817;BME280;75051;53.104;18.058;2024-03-17T01:10:01;100952.91;;;4.68;60.78
84817;BME280;75051;53.104;18.058;2024-03-17T01:12:28;100948.06;;;4.69;60.79
84817;BME280;75051;53.104;18.058;2024-03-17T01:14:55;100947.08;;;4.70;60.59
84817;BME280;75051;53.104;18.058;2024-03-17T01:17:21;100947.83;;;4.70;60.15
84817;BME280;75051;53.104;18.058;2024-03-17T01:19:48;100945.98;;;4.71;61.01
84817;BME280;75051;53.104;18.058;2024-03-17T01:22:14;100951.02;;;4.73;60.90
84817;BME280;75051;53.104;18.058;2024-03-17T01:24:41;100954.11;;;4.74;61.24
84817;BME280;75051;53.104;18.058;2024-03-17T01:27:12;100947.95;;;4.75;61.50
84817;BME280;75051;53.104;18.058;2024-03-17T01:29:42;100949.11;;;4.76;61.52
84817;BME280;75051;53.104;18.058;2024-03-17T01:32:12;100949.57;;;4.82;61.33
84817;BME280;75051;53.104;18.058;2024-03-17T01:34:38;100943.80;;;4.89;61.73
84817;BME280;75051;53.104;18.058;2024-03-17T01:37:05;100941.23;;;4.94;61.78
84817;BME280;75051;53.104;18.058;2024-03-17T01:39:32;100948.82;;;4.97;61.61
84817;BME280;75051;53.104;18.058;2024-03-17T01:41:59;100945.07;;;4.95;61.66
84817;BME280;75051;53.104;18.058;2024-03-17T01:44:27;100946.39;;;4.92;61.81
84817;BME280;75051;53.104;18.058;2024-03-17T01:46:56;100946.49;;;4.91;62.39
84817;BME280;75051;53.104;18.058;2024-03-17T01:49:24;100938.58;;;4.89;62.84
84817;BME280;75051;53.104;18.058;2024-03-17T01:51:51;100929.86;;;4.83;63.28
84817;BME280;75051;53.104;18.058;2024-03-17T01:54:18;100927.21;;;4.83;63.85
84817;BME280;75051;53.104;18.058;2024-03-17T01:56:45;100929.37;;;4.83;63.92
84817;BME280;75051;53.104;18.058;2024-03-17T01:59:11;100937.33;;;4.84;63.85
84817;BME280;75051;53.104;18.058;2024-03-17T02:01:38;100938.10;;;4.84;64.05
84817;BME280;75051;53.104;18.058;2024-03-17T02:04:05;100937.27;;;4.80;64.28
84817;BME280;75051;53.104;18.058;2024-03-17T02:06:32;100937.32;;;4.78;64.23
84817;BME280;75051;53.104;18.058;2024-03-17T02:08:59;100936.33;;;4.77;64.06
84817;BME280;75051;53.104;18.058;2024-03-17T02:13:55;100929.27;;;4.82;63.36
84817;BME280;75051;53.104;18.058;2024-03-17T02:16:23;100930.23;;;4.86;63.40
84817;BME280;75051;53.104;18.058;2024-03-17T02:18:56;100927.14;;;4.88;62.32
84817;BME280;75051;53.104;18.058;2024-03-17T02:21:24;100928.91;;;4.88;62.11
84817;BME280;75051;53.104;18.058;2024-03-17T02:23:52;100930.23;;;4.90;62.44
84817;BME280;75051;53.104;18.058;2024-03-17T02:26:18;100931.04;;;4.91;61.78
84817;BME280;75051;53.104;18.058;2024-03-17T02:28:46;100928.50;;;4.91;61.84
84817;BME280;75051;53.104;18.058;2024-03-17T02:31:15;100925.56;;;4.92;61.53
84817;BME280;75051;53.104;18.058;2024-03-17T02:33:43;100922.39;;;4.93;61.67
84817;BME280;75051;53.104;18.058;2024-03-17T02:36:11;100926.78;;;4.94;61.13
84817;BME280;75051;53.104;18.058;2024-03-17T02:38:41;100923.66;;;4.98;60.80
84817;BME280;75051;53.104;18.058;2024-03-17T02:41:26;100920.09;;;5.01;60.18
84817;BME280;75051;53.104;18.058;2024-03-17T02:43:54;100921.16;;;5.02;60.07
84817;BME280;75051;53.104;18.058;2024-03-17T02:46:21;100923.34;;;5.01;60.31
84817;BME280;75051;53.104;18.058;2024-03-17T02:48:51;100922.21;;;5.02;60.55
84817;BME280;75051;53.104;18.058;2024-03-17T02:51:21;100920.67;;;5.01;59.90
84817;BME280;75051;53.104;18.058;2024-03-17T02:53:49;100919.56;;;4.97;59.05
84817;BME280;75051;53.104;18.058;2024-03-17T02:56:16;100915.63;;;4.95;59.37
84817;BME280;75051;53.104;18.058;2024-03-17T02:58:45;100916.09;;;4.94;59.60
84817;BME280;75051;53.104;18.058;2024-03-17T03:01:13;100906.66;;;4.91;59.24
84817;BME280;75051;53.104;18.058;2024-03-17T03:03:41;100894.50;;;4.86;59.40
84817;BME280;75051;53.104;18.058;2024-03-17T03:06:08;100891.83;;;4.79;59.67
84817;BME280;75051;53.104;18.058;2024-03-17T03:08:39;100885.84;;;4.71;59.71
84817;BME280;75051;53.104;18.058;2024-03-17T03:11:08;100897.55;;;4.68;60.15
84817;BME280;75051;53.104;18.058;2024-03-17T03:13:39;100908.61;;;4.67;60.32
84817;BME280;75051;53.104;18.058;2024-03-17T03:16:07;100915.44;;;4.65;60.43
84817;BME280;75051;53.104;18.058;2024-03-17T03:18:35;100919.77;;;4.64;60.63
84817;BME280;75051;53.104;18.058;2024-03-17T03:21:03;100921.19;;;4.65;61.02
84817;BME280;75051;53.104;18.058;2024-03-17T03:23:30;100914.90;;;4.65;61.09
84817;BME280;75051;53.104;18.058;2024-03-17T03:25:58;100914.15;;;4.63;60.76
84817;BME280;75051;53.104;18.058;2024-03-17T03:28:25;100915.17;;;4.62;61.11
84817;BME280;75051;53.104;18.058;2024-03-17T03:30:52;100918.00;;;4.62;61.30
84817;BME280;75051;53.104;18.058;2024-03-17T03:33:20;100913.63;;;4.65;61.35
84817;BME280;75051;53.104;18.058;2024-03-17T03:35:46;100907.28;;;4.68;61.10
84817;BME280;75051;53.104;18.058;2024-03-17T03:38:14;100908.94;;;4.69;61.19
84817;BME280;75051;53.104;18.058;2024-03-17T03:40:42;100908.86;;;4.68;61.40
84817;BME280;75051;53.104;18.058;2024-03-17T03:43:11;100905.89;;;4.67;61.52
84817;BME280;75051;53.104;18.058;2024-03-17T03:45:40;100905.95;;;4.67;61.29
84817;BME280;75051;53.104;18.058;2024-03-17T03:48:07;100905.94;;;4.67;61.55
84817;BME280;75051;53.104;18.058;2024-03-17T03:50:38;100907.04;;;4.67;61.61
84817;BME280;75051;53.104;18.058;2024-03-17T03:53:05;100908.13;;;4.66;61.68
84817;BME280;75051;53.104;18.058;2024-03-17T03:55:34;100903.13;;;4.66;61.50
84817;BME280;75051;53.104;18.058;2024-03-17T03:58:00;100910.31;;;4.68;61.45
84817;BME280;75051;53.104;18.058;2024-03-17T04:00:27;100902.98;;;4.70;61.42
84817;BME280;75051;53.104;18.058;2024-03-17T04:02:58;100907.30;;;4.70;61.48
84817;BME280;75051;53.104;18.058;2024-03-17T04:05:25;100907.08;;;4.70;61.31
84817;BME280;75051;53.104;18.058;2024-03-17T04:07:51;100909.35;;;4.71;61.17
84817;BME280;75051;53.104;18.058;2024-03-17T04:10:18;100914.95;;;4.70;61.01
84817;BME280;75051;53.104;18.058;2024-03-17T04:12:47;100928.95;;;4.71;61.22
84817;BME280;75051;53.104;18.058;2024-03-17T04:15:14;100932.54;;;4.69;62.14
84817;BME280;75051;53.104;18.058;2024-03-17T04:17:41;100942.60;;;4.66;63.09
84817;BME280;75051;53.104;18.058;2024-03-17T04:20:09;100951.70;;;4.65;63.36
84817;BME280;75051;53.104;18.058;2024-03-17T04:22:40;100956.02;;;4.64;63.79
84817;BME280;75051;53.104;18.058;2024-03-17T04:25:10;100966.62;;;4.62;64.00
84817;BME280;75051;53.104;18.058;2024-03-17T04:27:36;100971.52;;;4.59;64.75
84817;BME280;75051;53.104;18.058;2024-03-17T04:30:05;100974.86;;;4.56;65.14
84817;BME280;75051;53.104;18.058;2024-03-17T04:32:33;100974.83;;;4.54;65.15
84817;BME280;75051;53.104;18.058;2024-03-17T04:34:59;100970.77;;;4.51;65.68
84817;BME280;75051;53.104;18.058;2024-03-17T04:37:26;100968.57;;;4.52;65.18
84817;BME280;75051;53.104;18.058;2024-03-17T04:39:53;100970.17;;;4.54;65.21
84817;BME280;75051;53.104;18.058;2024-03-17T04:42:20;100969.89;;;4.53;65.23
84817;BME280;75051;53.104;18.058;2024-03-17T04:44:47;100969.91;;;4.50;65.14
84817;BME280;75051;53.104;18.058;2024-03-17T04:47:13;100967.09;;;4.48;65.50
84817;BME280;75051;53.104;18.058;2024-03-17T04:49:41;100969.38;;;4.43;65.33
84817;BME280;75051;53.104;18.058;2024-03-17T04:52:11;100975.59;;;4.39;65.64
84817;BME280;75051;53.104;18.058;2024-03-17T04:54:37;100978.34;;;4.36;66.02
84817;BME280;75051;53.104;18.058;2024-03-17T04:57:04;100981.02;;;4.37;65.90
84817;BME280;75051;53.104;18.058;2024-03-17T04:59:34;100983.56;;;4.39;65.70
84817;BME280;75051;53.104;18.058;2024-03-17T05:02:01;100987.55;;;4.38;66.23
84817;BME280;75051;53.104;18.058;2024-03-17T05:04:29;100989.17;;;4.36;66.54
84817;BME280;75051;53.104;18.058;2024-03-17T05:06:56;100993.11;;;4.34;66.41
84817;BME280;75051;53.104;18.058;2024-03-17T05:09:23;100994.59;;;4.31;66.38
84817;BME280;75051;53.104;18.058;2024-03-17T05:11:50;100996.86;;;4.27;66.29
84817;BME280;75051;53.104;18.058;2024-03-17T05:14:18;101005.05;;;4.26;66.08
84817;BME280;75051;53.104;18.058;2024-03-17T05:16:50;101006.16;;;4.28;65.91
84817;BME280;75051;53.104;18.058;2024-03-17T05:19:16;101011.05;;;4.27;65.60
84817;BME280;75051;53.104;18.058;2024-03-17T05:21:45;101008.08;;;4.26;65.48
84817;BME280;75051;53.104;18.058;2024-03-17T05:24:11;101011.31;;;4.22;65.02
84817;BME280;75051;53.104;18.058;2024-03-17T05:26:39;101014.04;;;4.19;64.83
84817;BME280;75051;53.104;18.058;2024-03-17T05:29:05;101016.08;;;4.16;64.50
84817;BME280;75051;53.104;18.058;2024-03-17T05:31:32;101026.58;;;4.14;64.33
84817;BME280;75051;53.104;18.058;2024-03-17T05:33:59;101034.95;;;4.15;64.12
84817;BME280;75051;53.104;18.058;2024-03-17T05:36:26;101038.34;;;4.17;64.16
84817;BME280;75051;53.104;18.058;2024-03-17T05:38:52;101043.98;;;4.23;64.04
84817;BME280;75051;53.104;18.058;2024-03-17T05:41:19;101046.68;;;4.28;64.08
84817;BME280;75051;53.104;18.058;2024-03-17T05:43:46;101050.77;;;4.30;64.03
84817;BME280;75051;53.104;18.058;2024-03-17T05:46:15;101053.46;;;4.33;63.72
84817;BME280;75051;53.104;18.058;2024-03-17T05:48:41;101060.80;;;4.33;63.78
84817;BME280;75051;53.104;18.058;2024-03-17T05:51:12;101063.00;;;4.32;63.65
84817;BME280;75051;53.104;18.058;2024-03-17T05:53:39;101066.92;;;4.30;63.52
84817;BME280;75051;53.104;18.058;2024-03-17T05:56:15;101065.34;;;4.30;63.54
84817;BME280;75051;53.104;18.058;2024-03-17T05:58:42;101059.88;;;4.31;63.46
84817;BME280;75051;53.104;18.058;2024-03-17T06:01:09;101063.12;;;4.33;63.08
84817;BME280;75051;53.104;18.058;2024-03-17T06:03:37;101062.83;;;4.35;63.08
84817;BME280;75051;53.104;18.058;2024-03-17T06:06:06;101060.20;;;4.36;62.65
84817;BME280;75051;53.104;18.058;2024-03-17T06:08:38;101062.44;;;4.37;62.64
84817;BME280;75051;53.104;18.058;2024-03-17T06:11:05;101059.91;;;4.40;62.02
84817;BME280;75051;53.104;18.058;2024-03-17T06:13:33;101062.63;;;4.43;62.03
84817;BME280;75051;53.104;18.058;2024-03-17T06:16:02;101061.55;;;4.46;61.36
84817;BME280;75051;53.104;18.058;2024-03-17T06:18:29;101064.42;;;4.49;61.10
84817;BME280;75051;53.104;18.058;2024-03-17T06:20:55;101066.52;;;4.49;60.88
84817;BME280;75051;53.104;18.058;2024-03-17T06:23:25;101063.14;;;4.51;60.01
84817;BME280;75051;53.104;18.058;2024-03-17T06:25:56;101061.39;;;4.53;59.81
84817;BME280;75051;53.104;18.058;2024-03-17T06:28:23;101056.45;;;4.54;59.44
84817;BME280;75051;53.104;18.058;2024-03-17T06:30:57;101058.80;;;4.54;59.22
84817;BME280;75051;53.104;18.058;2024-03-17T06:33:33;101066.20;;;4.56;59.92
84817;BME280;75051;53.104;18.058;2024-03-17T06:36:03;101068.05;;;4.57;59.60
84817;BME280;75051;53.104;18.058;2024-03-17T06:38:31;101065.18;;;4.57;58.78
84817;BME280;75051;53.104;18.058;2024-03-17T06:40:58;101074.73;;;4.59;59.13
84817;BME280;75051;53.104;18.058;2024-03-17T06:43:25;101077.10;;;4.63;59.26
84817;BME280;75051;53.104;18.058;2024-03-17T06:45:59;101078.64;;;4.64;59.04
84817;BME280;75051;53.104;18.058;2024-03-17T06:48:26;101080.56;;;4.64;59.36
84817;BME280;75051;53.104;18.058;2024-03-17T06:50:54;101082.27;;;4.63;59.31
84817;BME280;75051;53.104;18.058;2024-03-17T06:53:21;101085.38;;;4.62;59.38
84817;BME280;75051;53.104;18.058;2024-03-17T06:55:58;101090.95;;;4.62;59.90
84817;BME280;75051;53.104;18.058;2024-03-17T06:58:27;101091.48;;;4.60;59.81
84817;BME280;75051;53.104;18.058;2024-03-17T07:00:57;101092.20;;;4.58;59.77
84817;BME280;75051;53.104;18.058;2024-03-17T07:03:45;101095.52;;;4.57;60.07
84817;BME280;75051;53.104;18.058;2024-03-17T07:06:12;101091.18;;;4.53;60.27
84817;BME280;75051;53.104;18.058;2024-03-17T07:08:38;101094.34;;;4.47;60.48
84817;BME280;75051;53.104;18.058;2024-03-17T07:11:06;101098.48;;;4.47;60.77
84817;BME280;75051;53.104;18.058;2024-03-17T07:13:37;101099.10;;;4.50;60.69
84817;BME280;75051;53.104;18.058;2024-03-17T07:16:06;101101.30;;;4.56;60.81
84817;BME280;75051;53.104;18.058;2024-03-17T07:18:32;101106.66;;;4.61;60.75
84817;BME280;75051;53.104;18.058;2024-03-17T07:21:00;101108.48;;;4.65;60.83
84817;BME280;75051;53.104;18.058;2024-03-17T07:23:27;101112.92;;;4.75;60.91
84817;BME280;75051;53.104;18.058;2024-03-17T07:25:55;101113.45;;;4.82;61.09
84817;BME280;75051;53.104;18.058;2024-03-17T07:28:23;101119.08;;;4.85;61.05
84817;BME280;75051;53.104;18.058;2024-03-17T07:30:52;101122.04;;;4.84;60.94
84817;BME280;75051;53.104;18.058;2024-03-17T07:33:19;101124.02;;;4.87;61.34
84817;BME280;75051;53.104;18.058;2024-03-17T07:35:52;101123.27;;;4.90;61.59
84817;BME280;75051;53.104;18.058;2024-03-17T07:38:19;101124.70;;;4.87;61.61
84817;BME280;75051;53.104;18.058;2024-03-17T07:41:05;101135.57;;;4.83;61.95
84817;BME280;75051;53.104;18.058;2024-03-17T07:43:34;101140.05;;;4.81;63.17
84817;BME280;75051;53.104;18.058;2024-03-17T07:46:04;101144.35;;;4.77;64.26
84817;BME280;75051;53.104;18.058;2024-03-17T07:48:35;101145.82;;;4.72;64.94
84817;BME280;75051;53.104;18.058;2024-03-17T07:51:08;101144.18;;;4.63;65.19
84817;BME280;75051;53.104;18.058;2024-03-17T07:53:36;101145.51;;;4.60;65.93
84817;BME280;75051;53.104;18.058;2024-03-17T07:56:06;101145.02;;;4.69;66.15
84817;BME280;75051;53.104;18.058;2024-03-17T07:58:33;101148.02;;;4.85;65.47
84817;BME280;75051;53.104;18.058;2024-03-17T08:01:01;101144.55;;;5.13;65.04
84817;BME280;75051;53.104;18.058;2024-03-17T08:03:30;101151.80;;;5.43;64.63
84817;BME280;75051;53.104;18.058;2024-03-17T08:05:58;101153.23;;;5.58;64.58
84817;BME280;75051;53.104;18.058;2024-03-17T08:08:25;101147.11;;;5.62;64.54
84817;BME280;75051;53.104;18.058;2024-03-17T08:10:52;101152.45;;;5.59;64.34
84817;BME280;75051;53.104;18.058;2024-03-17T08:13:19;101153.38;;;5.52;64.24
84817;BME280;75051;53.104;18.058;2024-03-17T08:15:54;101150.16;;;5.43;64.47
84817;BME280;75051;53.104;18.058;2024-03-17T08:18:21;101151.42;;;5.37;65.03
84817;BME280;75051;53.104;18.058;2024-03-17T08:20:47;101153.34;;;5.31;64.95
84817;BME280;75051;53.104;18.058;2024-03-17T08:23:14;101148.95;;;5.22;64.75
84817;BME280;75051;53.104;18.058;2024-03-17T08:25:41;101154.24;;;5.17;64.92
84817;BME280;75051;53.104;18.058;2024-03-17T08:28:08;101149.15;;;5.11;65.51
84817;BME280;75051;53.104;18.058;2024-03-17T08:30:34;101155.51;;;4.99;64.87
84817;BME280;75051;53.104;18.058;2024-03-17T08:33:01;101154.80;;;4.92;65.62
84817;BME280;75051;53.104;18.058;2024-03-17T08:35:28;101162.50;;;4.86;65.36
84817;BME280;75051;53.104;18.058;2024-03-17T08:37:54;101178.65;;;4.81;65.50
84817;BME280;75051;53.104;18.058;2024-03-17T08:40:21;101186.45;;;4.76;66.10
84817;BME280;75051;53.104;18.058;2024-03-17T08:42:49;101193.58;;;4.58;66.11
84817;BME280;75051;53.104;18.058;2024-03-17T08:45:15;101204.30;;;4.38;66.78
84817;BME280;75051;53.104;18.058;2024-03-17T08:47:42;101206.91;;;4.13;67.25
84817;BME280;75051;53.104;18.058;2024-03-17T08:50:09;101212.36;;;3.88;67.32
84817;BME280;75051;53.104;18.058;2024-03-17T08:52:38;101200.53;;;3.66;67.81
84817;BME280;75051;53.104;18.058;2024-03-17T08:55:07;101198.91;;;3.54;68.25
84817;BME280;75051;53.104;18.058;2024-03-17T08:57:37;101197.13;;;3.49;68.96
84817;BME280;75051;53.104;18.058;2024-03-17T09:00:04;101195.98;;;3.54;68.86
84817;BME280;75051;53.104;18.058;2024-03-17T09:02:31;101200.66;;;3.67;68.72
84817;BME280;75051;53.104;18.058;2024-03-17T09:04:57;101203.27;;;3.82;68.70
84817;BME280;75051;53.104;18.058;2024-03-17T09:07:24;101208.80;;;4.04;68.63
84817;BME280;75051;53.104;18.058;2024-03-17T09:09:51;101211.06;;;4.26;68.80
84817;BME280;75051;53.104;18.058;2024-03-17T09:12:17;101207.30;;;4.40;68.35
84817;BME280;75051;53.104;18.058;2024-03-17T09:14:47;101207.66;;;4.50;67.56
84817;BME280;75051;53.104;18.058;2024-03-17T09:17:14;101210.34;;;4.59;67.21
84817;BME280;75051;53.104;18.058;2024-03-17T09:19:41;101212.39;;;4.77;66.50
84817;BME280;75051;53.104;18.058;2024-03-17T09:22:08;101209.73;;;4.97;66.32
84817;BME280;75051;53.104;18.058;2024-03-17T09:24:34;101215.48;;;5.12;65.99
84817;BME280;75051;53.104;18.058;2024-03-17T09:27:01;101211.92;;;5.21;65.47
84817;BME280;75051;53.104;18.058;2024-03-17T09:29:27;101215.58;;;5.30;65.19
84817;BME280;75051;53.104;18.058;2024-03-17T09:31:54;101221.20;;;5.40;65.54
84817;BME280;75051;53.104;18.058;2024-03-17T09:34:20;101214.93;;;5.55;64.95
84817;BME280;75051;53.104;18.058;2024-03-17T09:36:47;101217.01;;;5.76;64.03
84817;BME280;75051;53.104;18.058;2024-03-17T09:39:13;101211.64;;;6.22;63.16
84817;BME280;75051;53.104;18.058;2024-03-17T09:41:41;101211.67;;;6.95;60.90
84817;BME280;75051;53.104;18.058;2024-03-17T09:44:11;101210.96;;;8.01;59.14
84817;BME280;75051;53.104;18.058;2024-03-17T09:46:39;101202.52;;;8.95;56.85
84817;BME280;75051;53.104;18.058;2024-03-17T09:49:14;101200.01;;;9.66;53.73
84817;BME280;75051;53.104;18.058;2024-03-17T09:51:42;101200.02;;;9.67;52.94
84817;BME280;75051;53.104;18.058;2024-03-17T09:54:18;101201.96;;;9.53;53.15
84817;BME280;75051;53.104;18.058;2024-03-17T09:56:45;101205.11;;;9.38;52.77
84817;BME280;75051;53.104;18.058;2024-03-17T09:59:13;101203.09;;;9.68;52.51
84817;BME280;75051;53.104;18.058;2024-03-17T10:01:39;101201.11;;;9.80;51.23
84817;BME280;75051;53.104;18.058;2024-03-17T10:04:06;101210.05;;;9.96;49.39
84817;BME280;75051;53.104;18.058;2024-03-17T10:06:45;101210.91;;;9.74;47.61
84817;BME280;75051;53.104;18.058;2024-03-17T10:09:16;101221.65;;;9.29;48.81
84817;BME280;75051;53.104;18.058;2024-03-17T10:11:47;101222.52;;;8.71;49.12
84817;BME280;75051;53.104;18.058;2024-03-17T10:14:16;101236.21;;;8.15;50.10
84817;BME280;75051;53.104;18.058;2024-03-17T10:16:43;101234.42;;;7.69;52.05
84817;BME280;75051;53.104;18.058;2024-03-17T10:19:21;101235.39;;;7.30;52.63
84817;BME280;75051;53.104;18.058;2024-03-17T10:21:49;101240.14;;;6.93;53.39
84817;BME280;75051;53.104;18.058;2024-03-17T10:24:23;101242.54;;;6.75;53.25
84817;BME280;75051;53.104;18.058;2024-03-17T10:29:22;101232.58;;;7.86;52.30
84817;BME280;75051;53.104;18.058;2024-03-17T10:31:52;101232.27;;;8.77;51.22
84817;BME280;75051;53.104;18.058;2024-03-17T10:34:20;101229.65;;;9.31;50.01
84817;BME280;75051;53.104;18.058;2024-03-17T10:36:52;101235.45;;;9.23;48.92
84817;BME280;75051;53.104;18.058;2024-03-17T10:39:31;101235.42;;;8.84;47.67
84817;BME280;75051;53.104;18.058;2024-03-17T10:42:01;101246.29;;;8.35;48.18
84817;BME280;75051;53.104;18.058;2024-03-17T10:44:29;101248.10;;;7.98;49.28
84817;BME280;75051;53.104;18.058;2024-03-17T10:46:58;101249.51;;;7.66;49.67
84817;BME280;75051;53.104;18.058;2024-03-17T10:49:33;101257.33;;;7.41;49.94
84817;BME280;75051;53.104;18.058;2024-03-17T10:52:07;101265.12;;;7.03;50.54
84817;BME280;75051;53.104;18.058;2024-03-17T10:54:35;101268.36;;;6.72;52.66
84817;BME280;75051;53.104;18.058;2024-03-17T11:00:04;101269.67;;;6.29;50.74
84817;BME280;75051;53.104;18.058;2024-03-17T11:02:32;101268.24;;;6.22;51.34
84817;BME280;75051;53.104;18.058;2024-03-17T11:05:01;101270.96;;;6.27;50.86
84817;BME280;75051;53.104;18.058;2024-03-17T11:07:29;101271.59;;;6.74;50.51
84817;BME280;75051;53.104;18.058;2024-03-17T11:09:59;101258.63;;;7.55;48.71
84817;BME280;75051;53.104;18.058;2024-03-17T11:12:40;101266.45;;;8.16;47.92
84817;BME280;75051;53.104;18.058;2024-03-17T11:17:53;101265.77;;;8.06;46.85
84817;BME280;75051;53.104;18.058;2024-03-17T11:20:24;101264.93;;;7.77;47.25
84817;BME280;75051;53.104;18.058;2024-03-17T11:22:54;101274.36;;;7.48;48.15
84817;BME280;75051;53.104;18.058;2024-03-17T11:27:53;101288.42;;;6.88;49.18
84817;BME280;75051;53.104;18.058;2024-03-17T11:47:00;101297.38;;;6.25;50.09
84817;BME280;75051;53.104;18.058;2024-03-17T11:49:35;101288.59;;;6.11;50.26
84817;BME280;75051;53.104;18.058;2024-03-17T11:52:14;101295.23;;;5.91;49.82
84817;BME280;75051;53.104;18.058;2024-03-17T11:54:46;101294.30;;;5.76;50.87
84817;BME280;75051;53.104;18.058;2024-03-17T11:57:21;101290.82;;;5.68;50.86
84817;BME280;75051;53.104;18.058;2024-03-17T11:59:51;101293.92;;;5.72;51.56
84817;BME280;75051;53.104;18.058;2024-03-17T12:02:26;101294.31;;;5.80;51.67
84817;BME280;75051;53.104;18.058;2024-03-17T12:04:54;101286.89;;;5.94;52.01
84817;BME280;75051;53.104;18.058;2024-03-17T12:07:23;101288.44;;;6.11;51.88
84817;BME280;75051;53.104;18.058;2024-03-17T12:09:51;101291.95;;;6.08;52.14
84817;BME280;75051;53.104;18.058;2024-03-17T12:12:23;101302.84;;;5.93;52.47
84817;BME280;75051;53.104;18.058;2024-03-17T12:14:50;101299.10;;;5.72;52.17
84817;BME280;75051;53.104;18.058;2024-03-17T12:17:22;101309.23;;;5.47;51.94
84817;BME280;75051;53.104;18.058;2024-03-17T12:19:49;101306.77;;;5.26;52.16
84817;BME280;75051;53.104;18.058;2024-03-17T12:22:20;101308.86;;;5.10;52.25
84817;BME280;75051;53.104;18.058;2024-03-17T12:24:49;101312.27;;;5.04;52.38
84817;BME280;75051;53.104;18.058;2024-03-17T12:27:21;101318.52;;;5.02;51.74
84817;BME280;75051;53.104;18.058;2024-03-17T12:29:49;101319.55;;;4.98;51.22
84817;BME280;75051;53.104;18.058;2024-03-17T12:32:18;101321.20;;;4.95;50.98
84817;BME280;75051;53.104;18.058;2024-03-17T12:34:46;101320.46;;;4.91;51.39
84817;BME280;75051;53.104;18.058;2024-03-17T12:37:31;101320.91;;;4.89;51.95
84817;BME280;75051;53.104;18.058;2024-03-17T12:40:00;101319.98;;;4.90;52.11
84817;BME280;75051;53.104;18.058;2024-03-17T12:42:28;101318.61;;;4.94;51.99
84817;BME280;75051;53.104;18.058;2024-03-17T12:45:01;101321.20;;;5.00;51.95
84817;BME280;75051;53.104;18.058;2024-03-17T12:47:30;101322.27;;;4.99;51.65
84817;BME280;75051;53.104;18.058;2024-03-17T12:49:58;101324.93;;;4.95;51.93
84817;BME280;75051;53.104;18.058;2024-03-17T12:52:32;101328.79;;;4.92;51.90
84817;BME280;75051;53.104;18.058;2024-03-17T12:55:07;101330.16;;;4.83;52.40
84817;BME280;75051;53.104;18.058;2024-03-17T13:01:03;101335.67;;;4.53;52.58
84817;BME280;75051;53.104;18.058;2024-03-17T13:03:34;101341.07;;;4.36;53.69
84817;BME280;75051;53.104;18.058;2024-03-17T13:06:03;101342.02;;;4.28;54.17
84817;BME280;75051;53.104;18.058;2024-03-17T13:08:32;101344.35;;;4.23;54.84
84817;BME280;75051;53.104;18.058;2024-03-17T13:11:00;101345.27;;;4.16;55.13
84817;BME280;75051;53.104;18.058;2024-03-17T13:13:26;101350.56;;;4.12;55.01
84817;BME280;75051;53.104;18.058;2024-03-17T13:15:53;101349.77;;;4.11;54.54
84817;BME280;75051;53.104;18.058;2024-03-17T13:18:20;101348.39;;;4.15;54.34
84817;BME280;75051;53.104;18.058;2024-03-17T13:20:47;101349.73;;;4.21;54.53
84817;BME280;75051;53.104;18.058;2024-03-17T13:23:16;101347.61;;;4.30;54.63
84817;BME280;75051;53.104;18.058;2024-03-17T13:25:42;101347.80;;;4.40;54.84
84817;BME280;75051;53.104;18.058;2024-03-17T13:28:11;101354.67;;;4.51;55.17
84817;BME280;75051;53.104;18.058;2024-03-17T13:30:38;101353.05;;;4.61;55.04